createdAt,value
2023-05-01T00:04:47.167Z,11.13
2023-05-01T00:09:49.008Z,15.37
2023-05-01T00:14:50.801Z,17.10
2023-05-01T00:19:55.424Z,16.90
2023-05-01T00:24:57.333Z,16.30
2023-05-01T00:30:01.803Z,17.67
2023-05-01T00:35:05.801Z,18.53
2023-05-01T00:40:09.726Z,20.00
2023-05-01T00:45:11.807Z,16.80
2023-05-01T00:50:16.000Z,16.77
2023-05-01T00:55:20.309Z,16.77
2023-05-01T01:00:25.076Z,18.70
2023-05-01T01:05:41.118Z,19.63
2023-05-01T01:10:59.516Z,20.17
2023-05-01T01:16:10.343Z,21.53
2023-05-01T01:21:22.791Z,20.07
2023-05-01T01:26:49.661Z,19.77
2023-05-01T01:31:59.502Z,17.80
2023-05-01T01:37:10.646Z,23.27
2023-05-01T01:42:18.886Z,23.73
2023-05-01T01:47:28.320Z,21.27
2023-05-01T01:52:37.860Z,24.37
2023-05-01T01:57:43.157Z,24.77
2023-05-01T02:02:45.672Z,32.00
2023-05-01T02:07:50.860Z,22.67
2023-05-01T02:12:56.393Z,25.70
2023-05-01T02:18:00.903Z,29.17
2023-05-01T02:23:05.806Z,27.30
2023-05-01T02:28:10.721Z,34.07
2023-05-01T02:33:12.944Z,28.50
2023-05-01T02:38:15.585Z,26.97
2023-05-01T02:43:22.576Z,26.30
2023-05-01T02:48:29.705Z,25.47
2023-05-01T02:53:34.653Z,25.47
2023-05-01T02:58:44.885Z,29.20
2023-05-01T03:03:46.994Z,28.50
2023-05-01T03:08:48.851Z,25.07
2023-05-01T03:13:55.377Z,25.53
2023-05-01T03:18:57.096Z,25.67
2023-05-01T03:24:01.152Z,25.80
2023-05-01T03:29:08.624Z,26.83
2023-05-01T03:34:12.844Z,24.00
2023-05-01T03:39:19.523Z,26.53
2023-05-01T03:44:42.212Z,22.50
2023-05-01T03:49:44.216Z,23.30
2023-05-01T03:54:46.550Z,23.00
2023-05-01T04:00:15.029Z,21.77
2023-05-01T04:05:21.575Z,24.40
2023-05-01T04:10:28.194Z,22.70
2023-05-01T04:15:37.123Z,20.23
2023-05-01T04:20:40.305Z,20.73
2023-05-01T04:25:42.208Z,23.00
2023-05-01T04:30:50.030Z,21.93
2023-05-01T04:35:54.226Z,24.10
2023-05-01T04:40:56.318Z,21.03
2023-05-01T04:46:00.628Z,22.83
2023-05-01T04:51:05.430Z,18.70
2023-05-01T04:56:09.025Z,20.23
2023-05-01T05:01:12.870Z,21.87
2023-05-01T05:06:14.764Z,21.63
2023-05-01T05:11:16.541Z,19.00
2023-05-01T05:16:34.677Z,17.23
2023-05-01T05:21:39.120Z,14.43
2023-05-01T05:26:42.936Z,17.03
2023-05-01T05:31:47.376Z,18.07
2023-05-01T05:36:49.888Z,15.80
2023-05-01T05:41:57.155Z,15.47
2023-05-01T05:47:01.077Z,13.87
2023-05-01T05:52:08.585Z,17.30
2023-05-01T05:57:14.330Z,14.20
2023-05-01T06:02:22.665Z,11.97
2023-05-01T06:07:28.308Z,16.63
2023-05-01T06:12:30.652Z,13.67
2023-05-01T06:17:40.800Z,13.00
2023-05-01T06:22:42.612Z,13.73
2023-05-01T06:27:54.126Z,12.30
2023-05-01T06:32:58.667Z,12.77
2023-05-01T06:38:00.476Z,13.70
2023-05-01T06:43:03.333Z,14.80
2023-05-01T06:48:07.927Z,14.27
2023-05-01T06:53:12.078Z,11.10
2023-05-01T06:58:24.136Z,15.90
2023-05-01T07:03:29.324Z,9.77
2023-05-01T07:08:31.653Z,12.20
2023-05-01T07:13:33.772Z,12.63
2023-05-01T07:18:35.928Z,19.03
2023-05-01T07:23:38.650Z,11.27
2023-05-01T07:28:41.928Z,7.87
2023-05-01T07:33:44.260Z,12.90
2023-05-01T07:38:46.089Z,9.07
2023-05-01T07:43:50.016Z,10.02
2023-05-01T07:48:54.197Z,9.10
2023-05-01T07:53:59.123Z,12.40
2023-05-01T07:59:03.036Z,8.60
2023-05-01T08:04:05.183Z,15.27
2023-05-01T08:09:07.394Z,11.27
2023-05-01T08:14:09.373Z,11.35
2023-05-01T08:19:14.202Z,8.63
2023-05-01T08:24:18.336Z,11.88
2023-05-01T08:29:25.758Z,8.23
2023-05-01T08:34:27.460Z,12.15
2023-05-01T08:39:29.307Z,12.52
2023-05-01T08:44:38.225Z,13.57
2023-05-01T08:49:42.970Z,8.70
2023-05-01T08:54:46.961Z,11.10
2023-05-01T08:59:53.505Z,7.68
2023-05-01T09:05:00.058Z,11.60
2023-05-01T09:10:01.938Z,10.55
2023-05-01T09:15:07.720Z,6.47
2023-05-01T09:20:10.544Z,8.45
2023-05-01T09:25:14.938Z,8.70
2023-05-01T09:30:32.723Z,9.88
2023-05-01T09:35:57.156Z,8.57
2023-05-01T09:41:04.379Z,10.73
2023-05-01T09:46:10.825Z,5.93
2023-05-01T09:51:29.154Z,8.75
2023-05-01T09:56:34.278Z,8.00
2023-05-01T10:01:42.903Z,6.00
2023-05-01T10:06:49.611Z,12.45
2023-05-01T10:11:53.694Z,11.88
2023-05-01T10:16:58.053Z,10.20
2023-05-01T10:22:02.465Z,6.47
2023-05-01T10:27:06.771Z,9.70
2023-05-01T10:32:11.312Z,9.65
2023-05-01T10:37:26.299Z,7.95
2023-05-01T10:42:28.975Z,9.30
2023-05-01T10:47:34.860Z,7.75
2023-05-01T10:53:14.737Z,8.02
2023-05-01T10:58:39.181Z,7.32
2023-05-01T11:03:43.001Z,11.02
2023-05-01T11:08:46.426Z,9.43
2023-05-01T11:13:57.521Z,7.28
2023-05-01T11:19:06.286Z,9.90
2023-05-01T11:24:13.176Z,6.38
2023-05-01T11:29:17.396Z,6.82
2023-05-01T11:34:19.168Z,8.48
2023-05-01T11:39:22.133Z,6.30
2023-05-01T11:44:23.906Z,9.13
2023-05-01T11:49:28.734Z,7.47
2023-05-01T11:54:47.531Z,6.28
2023-05-01T11:59:51.296Z,6.00
2023-05-01T12:04:54.021Z,7.68
2023-05-01T12:09:58.514Z,7.30
2023-05-01T12:15:03.648Z,7.68
2023-05-01T12:20:06.156Z,4.82
2023-05-01T12:25:08.428Z,7.75
2023-05-01T12:30:15.041Z,9.77
2023-05-01T12:35:16.973Z,7.10
2023-05-01T12:40:23.832Z,6.90
2023-05-01T12:45:25.718Z,6.32
2023-05-01T12:50:27.891Z,11.57
2023-05-01T12:55:29.751Z,6.65
2023-05-01T13:00:42.483Z,6.70
2023-05-01T13:05:55.620Z,6.30
2023-05-01T13:11:01.311Z,6.13
2023-05-01T13:16:09.136Z,10.15
2023-05-01T13:21:16.344Z,6.88
2023-05-01T13:26:18.316Z,10.35
2023-05-01T13:31:22.355Z,11.05
2023-05-01T13:36:26.423Z,10.73
2023-05-01T13:41:35.187Z,8.38
2023-05-01T13:46:37.006Z,7.07
2023-05-01T13:51:42.984Z,8.25
2023-05-01T13:56:44.734Z,5.57
2023-05-01T14:01:47.516Z,14.75
2023-05-01T14:06:51.662Z,13.25
2023-05-01T14:11:53.979Z,12.02
2023-05-01T14:16:58.122Z,7.53
2023-05-01T14:22:02.237Z,12.25
2023-05-01T14:27:12.432Z,8.30
2023-05-01T14:32:16.153Z,12.25
2023-05-01T14:37:18.490Z,8.90
2023-05-01T14:42:20.171Z,33.92
2023-05-01T14:47:22.307Z,9.07
2023-05-01T14:52:29.560Z,15.70
2023-05-01T14:57:31.291Z,14.02
2023-05-01T15:02:35.600Z,10.07
2023-05-01T15:07:38.704Z,7.20
2023-05-01T15:12:48.039Z,8.77
2023-05-01T15:17:49.786Z,6.97
2023-05-01T15:22:51.508Z,7.28
2023-05-01T15:27:55.437Z,5.78
2023-05-01T15:32:57.435Z,5.80
2023-05-01T15:38:04.271Z,6.43
2023-05-01T15:43:06.643Z,7.40
2023-05-01T15:48:08.426Z,6.35
2023-05-01T15:53:10.434Z,7.03
2023-05-01T15:58:12.156Z,5.68
2023-05-01T16:03:14.064Z,6.95
2023-05-01T16:08:17.471Z,3.42
2023-05-01T16:13:19.255Z,6.05
2023-05-01T16:18:24.998Z,9.25
2023-05-01T16:23:27.217Z,16.10
2023-05-01T16:28:31.198Z,5.22
2023-05-01T16:33:33.797Z,4.47
2023-05-01T16:38:36.748Z,5.10
2023-05-01T16:43:38.452Z,5.60
2023-05-01T16:48:42.435Z,7.15
2023-05-01T16:53:44.126Z,5.63
2023-05-01T16:58:46.331Z,10.43
2023-05-01T17:03:50.406Z,4.82
2023-05-01T17:08:54.757Z,5.00
2023-05-01T17:13:58.878Z,3.85
2023-05-01T17:19:01.526Z,3.53
2023-05-01T17:24:05.558Z,5.13
2023-05-01T17:29:07.233Z,6.72
2023-05-01T17:34:11.237Z,4.57
2023-05-01T17:39:15.365Z,6.53
2023-05-01T17:44:17.485Z,4.68
2023-05-01T17:49:19.490Z,8.57
2023-05-01T17:54:23.640Z,5.35
2023-05-01T17:59:30.528Z,6.72
2023-05-01T18:04:36.142Z,8.00
2023-05-01T18:09:38.499Z,7.13
2023-05-01T18:14:40.497Z,6.55
2023-05-01T18:19:42.168Z,9.68
2023-05-01T18:24:43.904Z,12.60
2023-05-01T18:29:45.825Z,9.48
2023-05-01T18:34:52.313Z,11.48
2023-05-01T18:39:54.136Z,13.40
2023-05-01T18:44:57.845Z,13.85
2023-05-01T18:50:02.214Z,17.00
2023-05-01T18:55:11.316Z,19.23
2023-05-01T19:00:15.139Z,17.45
2023-05-01T19:05:17.588Z,18.00
2023-05-01T19:10:19.383Z,22.33
2023-05-01T19:15:23.308Z,18.98
2023-05-01T19:20:29.533Z,19.67
2023-05-01T19:25:34.257Z,21.17
2023-05-01T19:30:36.133Z,23.33
2023-05-01T19:35:42.617Z,21.83
2023-05-01T19:40:51.650Z,17.27
2023-05-01T19:45:56.649Z,18.80
2023-05-01T19:50:58.373Z,22.58
2023-05-01T19:56:00.737Z,23.52
2023-05-01T20:01:05.012Z,21.38
2023-05-01T20:06:09.502Z,20.42
2023-05-01T20:11:11.333Z,23.50
2023-05-01T20:16:13.149Z,23.10
2023-05-01T20:21:14.873Z,21.92
2023-05-01T20:26:17.656Z,21.63
2023-05-01T20:31:21.613Z,23.70
2023-05-01T20:36:25.275Z,20.80
2023-05-01T20:41:29.178Z,22.83
2023-05-01T20:46:33.282Z,29.08
2023-05-01T20:51:38.397Z,21.48
2023-05-01T20:56:40.099Z,20.10
2023-05-01T21:01:44.155Z,20.88
2023-05-01T21:06:48.593Z,22.42
2023-05-01T21:11:50.546Z,23.17
2023-05-01T21:16:54.941Z,21.98
2023-05-01T21:21:59.714Z,26.83
2023-05-01T21:27:03.842Z,25.67
2023-05-01T21:32:06.217Z,22.60
2023-05-01T21:37:11.068Z,22.55
2023-05-01T21:42:18.179Z,24.17
2023-05-01T21:47:19.868Z,25.23
2023-05-01T21:52:24.068Z,27.33
2023-05-01T21:57:31.943Z,27.95
2023-05-01T22:02:40.427Z,27.02
2023-05-01T22:07:45.158Z,24.95
2023-05-01T22:12:48.813Z,26.63
2023-05-01T22:17:56.610Z,24.77
2023-05-01T22:23:00.972Z,22.88
2023-05-01T22:28:04.385Z,21.73
2023-05-01T22:33:10.804Z,23.27
2023-05-01T22:38:14.965Z,19.38
2023-05-01T22:43:16.702Z,29.23
2023-05-01T22:48:20.908Z,27.80
2023-05-01T22:53:22.590Z,26.92
2023-05-01T22:58:26.595Z,30.45
2023-05-01T23:03:29.067Z,35.85
2023-05-01T23:08:33.628Z,31.90
2023-05-01T23:13:35.325Z,37.53
2023-05-01T23:18:42.058Z,47.22
2023-05-01T23:23:46.805Z,35.00
2023-05-01T23:28:50.813Z,33.00
2023-05-01T23:33:53.316Z,29.90
2023-05-01T23:38:58.056Z,28.38
2023-05-01T23:44:02.494Z,30.73
2023-05-01T23:49:04.465Z,26.35
2023-05-01T23:54:11.701Z,21.83
2023-05-01T23:59:14.816Z,16.48
